createdAt,value
2016-09-30T00:00:45.412Z,13.21
2016-09-30T00:01:45.107Z,13.2
2016-09-30T00:02:45.440Z,13.21
2016-09-30T00:03:45.475Z,13.19
2016-09-30T00:04:45.475Z,13.21
2016-09-30T00:05:45.190Z,13.16
2016-09-30T00:06:45.284Z,13.23
2016-09-30T00:07:45.543Z,13.19
2016-09-30T00:08:45.582Z,13.13
2016-09-30T00:09:45.589Z,13.17
2016-09-30T00:10:45.595Z,13.16
2016-09-30T00:11:45.313Z,13.17
2016-09-30T00:12:45.631Z,13.2
2016-09-30T00:13:45.686Z,13.09
2016-09-30T00:14:45.373Z,13.05
2016-09-30T00:15:45.690Z,13.13
2016-09-30T00:16:45.712Z,13.05
2016-09-30T00:17:45.764Z,13.05
2016-09-30T00:18:45.764Z,13.16
2016-09-30T00:19:45.828Z,13.21
2016-09-30T00:20:45.815Z,13.17
2016-09-30T00:21:45.945Z,13.24
2016-09-30T00:22:45.542Z,13.11
2016-09-30T00:23:45.856Z,13.2
2016-09-30T00:24:45.879Z,13.21
2016-09-30T00:25:45.898Z,13.06
2016-09-30T00:26:45.615Z,13.12
2016-09-30T00:27:45.951Z,13.21
2016-09-30T00:28:45.988Z,13.11
2016-09-30T00:29:46.104Z,13.21
2016-09-30T00:30:46.085Z,13.21
2016-09-30T00:31:46.085Z,13.2
2016-09-30T00:32:45.751Z,13.2
2016-09-30T00:33:46.076Z,13.28
2016-09-30T00:34:46.078Z,13.27
2016-09-30T00:35:46.113Z,13.4
2016-09-30T00:36:46.131Z,13.36
2016-09-30T00:37:45.846Z,13.43
2016-09-30T00:38:46.163Z,13.43
2016-09-30T00:39:46.185Z,13.4
2016-09-30T00:40:46.210Z,13.39
2016-09-30T00:41:46.335Z,13.33
2016-09-30T00:42:46.275Z,13.42
2016-09-30T00:43:46.332Z,13.36
2016-09-30T00:44:46.360Z,13.42
2016-09-30T00:45:46.003Z,13.36
2016-09-30T00:46:46.333Z,13.28
2016-09-30T00:47:46.062Z,13.37
2016-09-30T00:48:46.372Z,13.26
2016-09-30T00:49:46.394Z,13.31
2016-09-30T00:50:45.791Z,13.24
2016-09-30T00:51:46.131Z,13.24
2016-09-30T00:52:46.129Z,13.27
2016-09-30T00:53:46.612Z,13.26
2016-09-30T00:54:46.496Z,13.26
2016-09-30T00:55:46.524Z,13.26
2016-09-30T00:56:46.551Z,13.2
2016-09-30T00:57:46.598Z,13.23
2016-09-30T00:58:46.583Z,13.24
2016-09-30T00:59:46.612Z,13.24
2016-09-30T01:00:46.611Z,13.28
2016-09-30T01:01:46.319Z,13.26
2016-09-30T01:02:46.662Z,13.23
2016-09-30T01:03:46.672Z,13.24
2016-09-30T01:04:46.694Z,13.24
2016-09-30T01:05:46.732Z,13.37
2016-09-30T01:06:46.861Z,13.4
2016-09-30T01:07:46.762Z,13.5
2016-09-30T01:08:46.534Z,13.47
2016-09-30T01:09:46.801Z,13.52
2016-09-30T01:10:46.861Z,13.65
2016-09-30T01:11:46.831Z,13.54
2016-09-30T01:12:46.861Z,13.64
2016-09-30T01:13:46.882Z,13.67
2016-09-30T01:14:46.603Z,13.68
2016-09-30T01:15:46.920Z,13.73
2016-09-30T01:16:46.946Z,13.68
2016-09-30T01:17:46.661Z,13.67
2016-09-30T01:18:46.672Z,13.76
2016-09-30T01:19:47.004Z,13.71
2016-09-30T01:20:47.023Z,13.85
2016-09-30T01:21:47.031Z,13.85
2016-09-30T01:22:47.057Z,13.86
2016-09-30T01:23:47.082Z,13.85
2016-09-30T01:24:47.108Z,13.8
2016-09-30T01:25:47.478Z,13.83
2016-09-30T01:26:47.149Z,13.93
2016-09-30T01:27:47.166Z,13.86
2016-09-30T01:28:47.181Z,13.91
2016-09-30T01:29:47.204Z,13.93
2016-09-30T01:30:46.900Z,13.98
2016-09-30T01:31:47.249Z,13.95
2016-09-30T01:32:47.265Z,13.97
2016-09-30T01:33:46.986Z,13.98
2016-09-30T01:34:47.318Z,13.97
2016-09-30T01:35:47.333Z,14.03
2016-09-30T01:36:46.722Z,13.95
2016-09-30T01:37:46.742Z,13.97
2016-09-30T01:38:47.401Z,13.94
2016-09-30T01:39:47.113Z,14.07
2016-09-30T01:40:47.434Z,14.03
2016-09-30T01:41:47.163Z,14.08
2016-09-30T01:42:47.161Z,14.07
2016-09-30T01:43:47.492Z,14.08
2016-09-30T01:44:47.523Z,14.12
2016-09-30T01:45:47.613Z,14.15
2016-09-30T01:46:47.558Z,14.15
2016-09-30T01:47:46.962Z,14.12
2016-09-30T01:48:47.604Z,14.19
2016-09-30T01:49:47.310Z,14.12
2016-09-30T01:50:47.330Z,14.12
2016-09-30T01:51:47.658Z,14.15
2016-09-30T01:52:47.682Z,14.07
2016-09-30T01:53:47.493Z,14.08
2016-09-30T01:54:47.723Z,14.11
2016-09-30T01:55:47.866Z,14.13
2016-09-30T01:56:47.455Z,14.13
2016-09-30T01:57:47.798Z,14.15
2016-09-30T01:58:47.862Z,14.08
2016-09-30T01:59:47.893Z,14.07
2016-09-30T02:00:47.909Z,14.04
2016-09-30T02:01:47.869Z,14.05
2016-09-30T02:02:47.581Z,14.08
2016-09-30T02:03:47.912Z,14.07
2016-09-30T02:04:47.942Z,14.08
2016-09-30T02:05:47.639Z,14.08
2016-09-30T02:06:47.677Z,14.08
2016-09-30T02:07:48.112Z,14.05
2016-09-30T02:08:48.107Z,14.04
2016-09-30T02:09:48.040Z,14.05
2016-09-30T02:10:48.106Z,14
2016-09-30T02:11:48.143Z,14.08
2016-09-30T02:12:48.109Z,14.01
2016-09-30T02:13:48.138Z,13.98
2016-09-30T02:14:48.136Z,13.98
2016-09-30T02:15:47.849Z,14.05
2016-09-30T02:16:47.885Z,13.93
2016-09-30T02:17:48.220Z,14
2016-09-30T02:18:48.219Z,14
2016-09-30T02:19:47.936Z,13.97
2016-09-30T02:20:48.292Z,13.95
2016-09-30T02:21:48.017Z,13.93
2016-09-30T02:22:48.370Z,13.93
2016-09-30T02:23:48.390Z,13.93
2016-09-30T02:24:48.401Z,13.89
2016-09-30T02:25:48.367Z,13.83
2016-09-30T02:26:48.392Z,13.98
2016-09-30T02:27:48.410Z,13.87
2016-09-30T02:28:48.132Z,13.91
2016-09-30T02:29:48.448Z,13.85
2016-09-30T02:30:48.480Z,13.8
2016-09-30T02:31:48.200Z,13.85
2016-09-30T02:32:48.210Z,13.91
2016-09-30T02:33:48.237Z,13.79
2016-09-30T02:34:48.557Z,13.85
2016-09-30T02:35:48.672Z,13.78
2016-09-30T02:36:48.600Z,13.64
2016-09-30T02:37:48.618Z,13.7
2016-09-30T02:38:48.648Z,13.67
2016-09-30T02:39:48.674Z,13.58
2016-09-30T02:40:48.372Z,13.57
2016-09-30T02:41:48.694Z,13.58
2016-09-30T02:42:48.718Z,13.61
2016-09-30T02:43:48.742Z,13.54
2016-09-30T02:44:48.770Z,13.58
2016-09-30T02:45:48.988Z,13.57
2016-09-30T02:46:48.903Z,13.61
2016-09-30T02:47:48.826Z,13.62
2016-09-30T02:48:48.858Z,13.61
2016-09-30T02:49:48.545Z,13.65
2016-09-30T02:50:48.896Z,13.67
2016-09-30T02:51:48.599Z,13.71
2016-09-30T02:52:48.928Z,13.78
2016-09-30T02:53:48.950Z,13.68
2016-09-30T02:54:48.660Z,13.73
2016-09-30T02:55:48.679Z,13.73
2016-09-30T02:56:48.710Z,13.62
2016-09-30T02:57:49.040Z,13.62
2016-09-30T02:58:49.064Z,13.6
2016-09-30T02:59:49.079Z,13.58
2016-09-30T03:00:49.249Z,13.49
2016-09-30T03:01:49.139Z,13.45
2016-09-30T03:02:48.834Z,13.54
2016-09-30T03:03:49.175Z,13.45
2016-09-30T03:04:49.186Z,13.47
2016-09-30T03:05:48.599Z,13.47
2016-09-30T03:06:49.224Z,13.4
2016-09-30T03:07:49.249Z,13.39
2016-09-30T03:08:48.950Z,13.47
2016-09-30T03:09:49.271Z,13.33
2016-09-30T03:10:49.302Z,13.47
2016-09-30T03:11:49.015Z,13.5
2016-09-30T03:12:49.391Z,13.46
2016-09-30T03:13:49.050Z,13.42
2016-09-30T03:14:49.079Z,13.42
2016-09-30T03:15:49.088Z,13.43
2016-09-30T03:16:49.420Z,13.31
2016-09-30T03:17:49.133Z,13.28
2016-09-30T03:18:49.245Z,13.2
2016-09-30T03:19:49.183Z,13.21
2016-09-30T03:20:49.508Z,13.24
2016-09-30T03:21:49.519Z,13.36
2016-09-30T03:22:49.252Z,13.31
2016-09-30T03:23:49.570Z,13.3
2016-09-30T03:24:49.283Z,13.33
2016-09-30T03:25:49.674Z,13.24
2016-09-30T03:26:49.618Z,13.26
2016-09-30T03:27:49.339Z,13.23
2016-09-30T03:28:49.660Z,13.24
2016-09-30T03:29:49.382Z,13.26
2016-09-30T03:30:49.392Z,13.24
2016-09-30T03:31:49.473Z,13.3
2016-09-30T03:32:49.759Z,13.36
2016-09-30T03:33:49.521Z,13.24
2016-09-30T03:34:49.473Z,13.17
2016-09-30T03:35:49.498Z,13.2
2016-09-30T03:36:49.521Z,13.24
2016-09-30T03:37:49.293Z,13.2
2016-09-30T03:38:49.553Z,13.21
2016-09-30T03:39:49.904Z,13.23
2016-09-30T03:40:49.298Z,13.17
2016-09-30T03:41:49.933Z,13.2
2016-09-30T03:42:49.950Z,13.11
2016-09-30T03:43:49.973Z,13.12
2016-09-30T03:44:50.010Z,13.19
2016-09-30T03:45:50.021Z,13.2
2016-09-30T03:46:50.047Z,13.21
2016-09-30T03:47:50.106Z,13.17
2016-09-30T03:48:50.097Z,13.19
2016-09-30T03:49:50.118Z,13.09
2016-09-30T03:50:50.131Z,13.17
2016-09-30T03:51:49.812Z,13.09
2016-09-30T03:52:49.843Z,13.05
2016-09-30T03:53:49.549Z,13.03
2016-09-30T03:54:50.211Z,13.12
2016-09-30T03:55:49.906Z,13.13
2016-09-30T03:56:50.235Z,13.09
2016-09-30T03:57:50.389Z,13.09
2016-09-30T03:58:50.270Z,12.99
2016-09-30T03:59:50.008Z,13.06
2016-09-30T04:00:50.073Z,13.05
2016-09-30T04:01:50.339Z,13.11
2016-09-30T04:02:50.381Z,13.08
2016-09-30T04:03:50.084Z,13.06
2016-09-30T04:04:50.410Z,13.08
2016-09-30T04:05:50.420Z,13.2
2016-09-30T04:06:50.437Z,13.2
2016-09-30T04:07:50.461Z,13.12
2016-09-30T04:08:50.502Z,13.08
2016-09-30T04:09:50.522Z,13.13
2016-09-30T04:10:50.522Z,13.2
2016-09-30T04:11:50.639Z,13.08
2016-09-30T04:12:50.571Z,13.26
2016-09-30T04:13:50.320Z,13.2
2016-09-30T04:14:50.298Z,13.24
2016-09-30T04:15:50.630Z,13.16
2016-09-30T04:16:50.652Z,13.2
2016-09-30T04:17:50.674Z,13.27
2016-09-30T04:18:50.701Z,13.23
2016-09-30T04:19:50.099Z,13.13
2016-09-30T04:20:50.732Z,13.23
2016-09-30T04:21:50.764Z,13.28
2016-09-30T04:22:50.773Z,13.17
2016-09-30T04:23:50.807Z,13.19
2016-09-30T04:24:50.941Z,13.27
2016-09-30T04:25:50.852Z,13.23
2016-09-30T04:26:50.953Z,13.26
2016-09-30T04:27:50.872Z,13.26
2016-09-30T04:28:50.900Z,13.3
2016-09-30T04:29:50.614Z,13.28
2016-09-30T04:30:50.985Z,13.24
2016-09-30T04:31:50.968Z,13.33
2016-09-30T04:32:50.972Z,13.3
2016-09-30T04:33:50.987Z,13.24
2016-09-30T04:34:50.711Z,13.26
2016-09-30T04:35:51.033Z,13.33
2016-09-30T04:36:50.752Z,13.3
2016-09-30T04:37:51.084Z,13.23
2016-09-30T04:38:51.099Z,13.24
2016-09-30T04:39:51.120Z,13.33
2016-09-30T04:40:51.141Z,13.37
2016-09-30T04:41:50.830Z,13.36
2016-09-30T04:42:51.211Z,13.23
2016-09-30T04:43:51.203Z,13.24
2016-09-30T04:44:50.602Z,13.33
2016-09-30T04:45:51.236Z,13.37
2016-09-30T04:46:51.273Z,13.36
2016-09-30T04:47:51.275Z,13.36
2016-09-30T04:48:51.316Z,13.37
2016-09-30T04:49:51.332Z,13.42
2016-09-30T04:50:51.386Z,13.33
2016-09-30T04:51:51.069Z,13.39
2016-09-30T04:52:51.082Z,13.39
2016-09-30T04:53:51.079Z,13.4
2016-09-30T04:54:51.424Z,13.39
2016-09-30T04:55:51.450Z,13.37
2016-09-30T04:56:51.464Z,13.33
2016-09-30T04:57:51.480Z,13.3
2016-09-30T04:58:51.500Z,13.37
2016-09-30T04:59:51.521Z,13.36
2016-09-30T05:00:51.602Z,13.27
2016-09-30T05:01:51.558Z,13.23
2016-09-30T05:02:51.586Z,13.28
2016-09-30T05:03:51.658Z,13.31
2016-09-30T05:04:51.632Z,13.4
2016-09-30T05:05:51.710Z,13.28
2016-09-30T05:06:51.344Z,13.3
2016-09-30T05:07:51.688Z,13.33
2016-09-30T05:08:51.401Z,13.39
2016-09-30T05:09:51.722Z,13.3
2016-09-30T05:10:51.760Z,13.28
2016-09-30T05:11:51.917Z,13.27
2016-09-30T05:12:51.914Z,13.3
2016-09-30T05:13:51.913Z,13.24
2016-09-30T05:14:51.876Z,13.2
2016-09-30T05:15:51.942Z,13.2
2016-09-30T05:16:51.869Z,13.21
2016-09-30T05:17:51.945Z,13.16
2016-09-30T05:18:51.908Z,13.16
2016-09-30T05:19:51.949Z,13.19
2016-09-30T05:20:51.332Z,13.19
2016-09-30T05:21:51.658Z,13.26
2016-09-30T05:22:51.987Z,13.16
2016-09-30T05:23:51.701Z,13.19
2016-09-30T05:24:52.039Z,13.16
2016-09-30T05:25:52.206Z,13.06
2016-09-30T05:26:52.192Z,13.05
2016-09-30T05:27:52.204Z,13.06
2016-09-30T05:28:51.849Z,13.05
2016-09-30T05:29:52.133Z,13.03
2016-09-30T05:30:52.033Z,13.12
2016-09-30T05:31:52.167Z,13.16
2016-09-30T05:32:52.191Z,13.08
2016-09-30T05:33:52.217Z,13.09
2016-09-30T05:34:51.929Z,13.16
2016-09-30T05:35:52.303Z,13.11
2016-09-30T05:36:51.994Z,13.11
2016-09-30T05:37:51.992Z,13.11
2016-09-30T05:38:52.442Z,13.09
2016-09-30T05:39:52.028Z,13.11
2016-09-30T05:40:52.150Z,13.05
2016-09-30T05:41:52.394Z,13.01
2016-09-30T05:42:52.407Z,13.05
2016-09-30T05:43:52.472Z,13.13
2016-09-30T05:44:52.128Z,13.21
2016-09-30T05:45:51.840Z,13.24
2016-09-30T05:46:52.468Z,13.21
2016-09-30T05:47:52.509Z,13.17
2016-09-30T05:48:51.909Z,13.19
2016-09-30T05:49:52.277Z,13.13
2016-09-30T05:50:52.587Z,13.24
2016-09-30T05:51:52.677Z,13.28
2016-09-30T05:52:52.592Z,13.28
2016-09-30T05:53:52.622Z,13.3
2016-09-30T05:54:52.644Z,13.24
2016-09-30T05:55:52.717Z,13.26
2016-09-30T05:56:52.687Z,13.3
2016-09-30T05:57:52.386Z,13.4
2016-09-30T05:58:52.476Z,13.39
2016-09-30T05:59:52.431Z,13.4
2016-09-30T06:00:52.449Z,13.4
2016-09-30T06:01:52.979Z,13.46
2016-09-30T06:02:52.960Z,13.46
2016-09-30T06:03:52.983Z,13.58
2016-09-30T06:04:52.990Z,13.55
2016-09-30T06:05:52.980Z,13.54
2016-09-30T06:06:52.989Z,13.61
2016-09-30T06:07:53.006Z,13.68
2016-09-30T06:08:53.040Z,13.61
2016-09-30T06:09:52.999Z,13.75
2016-09-30T06:10:52.650Z,13.75
2016-09-30T06:11:53.053Z,13.68
2016-09-30T06:12:52.394Z,13.8
2016-09-30T06:13:53.076Z,13.86
2016-09-30T06:14:52.421Z,13.79
2016-09-30T06:15:53.115Z,13.86
2016-09-30T06:16:53.102Z,13.79
2016-09-30T06:17:52.791Z,13.86
2016-09-30T06:18:53.134Z,13.93
2016-09-30T06:19:52.850Z,13.87
2016-09-30T06:20:53.170Z,13.95
2016-09-30T06:21:53.192Z,13.98
2016-09-30T06:22:53.209Z,13.93
2016-09-30T06:23:53.070Z,13.93
2016-09-30T06:24:53.256Z,13.94
2016-09-30T06:25:53.299Z,14.01
2016-09-30T06:26:53.405Z,13.97
2016-09-30T06:27:53.320Z,13.98
2016-09-30T06:28:53.439Z,13.95
2016-09-30T06:29:53.345Z,14.01
2016-09-30T06:30:53.076Z,14.11
2016-09-30T06:31:53.139Z,14.12
2016-09-30T06:32:53.451Z,14.05
2016-09-30T06:33:53.135Z,14.08
2016-09-30T06:34:53.470Z,14.19
2016-09-30T06:35:53.182Z,14.26
2016-09-30T06:36:52.880Z,14.25
2016-09-30T06:37:53.528Z,14.25
2016-09-30T06:38:53.548Z,14.23
2016-09-30T06:39:53.649Z,14.36
2016-09-30T06:40:53.279Z,14.31
2016-09-30T06:41:53.607Z,14.31
2016-09-30T06:42:53.645Z,14.37
2016-09-30T06:43:53.670Z,14.37
2016-09-30T06:44:53.672Z,14.44
2016-09-30T06:45:53.713Z,14.33
2016-09-30T06:46:53.412Z,14.43
2016-09-30T06:47:53.422Z,14.43
2016-09-30T06:48:53.752Z,14.48
2016-09-30T06:49:53.788Z,14.51
2016-09-30T06:50:53.281Z,14.48
2016-09-30T06:51:53.824Z,14.44
2016-09-30T06:52:53.844Z,14.61
2016-09-30T06:53:53.892Z,14.56
2016-09-30T06:54:53.908Z,14.56
2016-09-30T06:55:53.914Z,14.68
2016-09-30T06:56:53.923Z,14.67
2016-09-30T06:57:53.944Z,14.63
2016-09-30T06:58:53.978Z,14.63
2016-09-30T06:59:53.992Z,14.71
2016-09-30T07:00:53.709Z,14.7
2016-09-30T07:01:53.718Z,14.78
2016-09-30T07:02:54.052Z,14.87
2016-09-30T07:03:54.240Z,14.89
2016-09-30T07:04:54.182Z,14.93
2016-09-30T07:05:54.212Z,15.04
2016-09-30T07:06:54.153Z,14.94
2016-09-30T07:07:53.852Z,14.99
2016-09-30T07:08:53.860Z,14.97
2016-09-30T07:09:53.893Z,15.1
2016-09-30T07:10:54.033Z,15.11
2016-09-30T07:11:53.935Z,15.11
2016-09-30T07:12:53.967Z,15.23
2016-09-30T07:13:53.998Z,15.1
2016-09-30T07:14:54.301Z,15.26
2016-09-30T07:15:54.415Z,15.26
2016-09-30T07:16:54.367Z,15.3
2016-09-30T07:17:54.376Z,15.27
2016-09-30T07:18:54.443Z,15.41
2016-09-30T07:19:54.410Z,15.41
2016-09-30T07:20:54.492Z,15.41
2016-09-30T07:21:54.140Z,15.54
2016-09-30T07:22:54.170Z,15.55
2016-09-30T07:23:54.500Z,15.55
2016-09-30T07:24:54.199Z,15.54
2016-09-30T07:25:54.623Z,15.66
2016-09-30T07:26:54.558Z,15.52
2016-09-30T07:27:54.599Z,15.62
2016-09-30T07:28:54.620Z,15.7
2016-09-30T07:29:54.407Z,15.78
2016-09-30T07:30:54.339Z,15.88
2016-09-30T07:31:54.663Z,15.92
2016-09-30T07:32:54.397Z,15.98
2016-09-30T07:33:54.720Z,16.06
2016-09-30T07:34:54.751Z,16.08
2016-09-30T07:35:54.749Z,16.18
2016-09-30T07:36:54.477Z,16.17
2016-09-30T07:37:54.477Z,16.21
2016-09-30T07:38:54.988Z,16.21
2016-09-30T07:39:54.541Z,16.24
2016-09-30T07:40:54.667Z,16.32
2016-09-30T07:41:54.891Z,16.29
2016-09-30T07:42:55.010Z,16.39
2016-09-30T07:43:54.629Z,16.37
2016-09-30T07:44:55.005Z,16.41
2016-09-30T07:45:54.977Z,16.47
2016-09-30T07:46:54.992Z,16.57
2016-09-30T07:47:55.027Z,16.55
2016-09-30T07:48:54.740Z,16.57
2016-09-30T07:49:55.069Z,16.58
2016-09-30T07:50:54.786Z,16.54
2016-09-30T07:51:54.848Z,16.62
2016-09-30T07:52:54.988Z,16.51
2016-09-30T07:53:55.253Z,16.61
2016-09-30T07:54:55.187Z,16.55
2016-09-30T07:55:55.188Z,16.55
2016-09-30T07:56:55.234Z,16.51
2016-09-30T07:57:55.247Z,16.49
2016-09-30T07:59:55.304Z,16.49
2016-09-30T08:01:27.310Z,16.47
2016-09-30T08:01:55.336Z,16.49
2016-09-30T08:02:55.082Z,16.49
2016-09-30T08:03:55.384Z,16.59
2016-09-30T08:04:55.449Z,16.54
2016-09-30T08:05:55.610Z,16.55
2016-09-30T08:06:55.455Z,16.54
2016-09-30T08:07:55.161Z,16.66
2016-09-30T08:08:55.509Z,16.57
2016-09-30T08:09:55.537Z,16.55
2016-09-30T08:10:55.242Z,16.58
2016-09-30T08:11:55.553Z,16.54
2016-09-30T08:12:55.594Z,16.54
2016-09-30T08:13:55.620Z,16.51
2016-09-30T08:14:55.641Z,16.5
2016-09-30T08:15:55.699Z,16.61
2016-09-30T08:16:55.696Z,16.65
2016-09-30T08:17:55.417Z,16.72
2016-09-30T08:18:55.728Z,16.77
2016-09-30T08:19:55.759Z,16.83
2016-09-30T08:20:55.803Z,16.91
2016-09-30T08:21:55.795Z,16.79
2016-09-30T08:22:55.509Z,16.94
2016-09-30T08:23:55.827Z,16.97
2016-09-30T08:24:55.552Z,17.01
2016-09-30T08:25:55.678Z,17.14
2016-09-30T08:26:55.918Z,17.17
2016-09-30T08:27:56.137Z,17.24
2016-09-30T08:28:55.659Z,17.27
2016-09-30T08:29:56.085Z,17.34
2016-09-30T08:30:56.045Z,17.32
2016-09-30T08:31:56.095Z,17.28
2016-09-30T08:32:55.439Z,17.46
2016-09-30T08:33:55.760Z,17.6
2016-09-30T08:34:56.107Z,17.63
2016-09-30T08:35:56.118Z,17.66
2016-09-30T08:36:56.555Z,17.72
2016-09-30T08:37:55.868Z,17.78
2016-09-30T08:38:56.544Z,17.84
2016-09-30T08:39:56.485Z,17.95
2016-09-30T08:40:56.557Z,18
2016-09-30T08:41:56.466Z,18.09
2016-09-30T08:42:56.554Z,18.15
2016-09-30T08:43:56.421Z,18.11
2016-09-30T08:44:56.542Z,18.27
2016-09-30T08:45:56.416Z,18.21
2016-09-30T08:46:56.475Z,18.18
2016-09-30T08:47:56.362Z,18.34
2016-09-30T08:48:56.499Z,18.49
2016-09-30T08:49:56.451Z,18.46
2016-09-30T08:50:56.726Z,18.51
2016-09-30T08:51:56.206Z,18.48
2016-09-30T08:52:56.479Z,18.57
2016-09-30T08:53:56.225Z,18.67
2016-09-30T08:54:56.583Z,18.64
2016-09-30T08:55:56.697Z,18.64
2016-09-30T08:56:56.619Z,18.73
2016-09-30T08:57:56.679Z,18.86
2016-09-30T08:58:56.505Z,18.89
2016-09-30T08:59:56.676Z,19.01
2016-09-30T09:00:56.739Z,19.08
2016-09-30T09:01:56.826Z,19.12
2016-09-30T09:02:56.290Z,19.29
2016-09-30T09:03:56.797Z,19.35
2016-09-30T09:04:56.849Z,19.45
2016-09-30T09:05:56.925Z,19.42
2016-09-30T09:06:56.247Z,19.48
2016-09-30T09:07:56.561Z,19.42
2016-09-30T09:08:56.602Z,19.47
2016-09-30T09:09:56.625Z,19.42
2016-09-30T09:10:56.956Z,19.42
2016-09-30T09:11:56.988Z,19.39
2016-09-30T09:12:57.011Z,19.35
2016-09-30T09:13:56.723Z,19.16
2016-09-30T09:14:57.087Z,19.22
2016-09-30T09:15:57.383Z,19.37
2016-09-30T09:16:57.097Z,19.3
2016-09-30T09:17:56.829Z,19.44
2016-09-30T09:18:56.609Z,19.55
2016-09-30T09:19:56.865Z,19.7
2016-09-30T09:20:56.898Z,19.78
2016-09-30T09:21:57.226Z,19.85
2016-09-30T09:22:57.245Z,19.97
2016-09-30T09:23:56.945Z,19.9
2016-09-30T09:24:56.973Z,19.89
2016-09-30T09:25:57.018Z,19.92
2016-09-30T09:26:57.039Z,19.87
2016-09-30T09:27:57.366Z,19.94
2016-09-30T09:28:57.390Z,19.94
2016-09-30T09:29:57.404Z,19.85
2016-09-30T09:30:57.455Z,20.03
2016-09-30T09:31:57.475Z,20
2016-09-30T09:32:57.192Z,20.1
2016-09-30T09:33:57.521Z,20.11
2016-09-30T09:34:57.543Z,20.32
2016-09-30T09:35:57.576Z,20.27
2016-09-30T09:36:57.304Z,20.56
2016-09-30T09:37:57.502Z,20.44
2016-09-30T09:38:57.666Z,20.46
2016-09-30T09:39:57.370Z,20.49
2016-09-30T09:40:57.690Z,20.53
2016-09-30T09:41:57.405Z,20.55
2016-09-30T09:42:57.747Z,20.7
2016-09-30T09:43:57.783Z,20.8
2016-09-30T09:44:57.837Z,20.86
2016-09-30T09:45:57.842Z,20.93
2016-09-30T09:46:57.909Z,20.95
2016-09-30T09:47:57.898Z,21.08
2016-09-30T09:48:57.993Z,21.03
2016-09-30T09:49:57.979Z,20.92
2016-09-30T09:50:57.970Z,20.96
2016-09-30T09:51:57.348Z,20.86
2016-09-30T09:52:57.709Z,20.75
2016-09-30T09:53:58.029Z,20.68
2016-09-30T09:54:57.638Z,20.55
2016-09-30T09:55:57.881Z,20.52
2016-09-30T09:56:58.109Z,20.26
2016-09-30T09:57:58.168Z,20.24
2016-09-30T09:58:58.197Z,20.34
2016-09-30T09:59:58.326Z,20.49
2016-09-30T10:00:57.911Z,20.42
2016-09-30T10:01:57.938Z,20.63
2016-09-30T10:02:57.962Z,20.75
2016-09-30T10:03:58.296Z,20.74
2016-09-30T10:04:58.005Z,20.78
2016-09-30T10:05:57.892Z,20.86
2016-09-30T10:06:58.153Z,20.85
2016-09-30T10:07:58.599Z,20.75
2016-09-30T10:08:58.121Z,20.8
2016-09-30T10:09:58.150Z,20.68
2016-09-30T10:10:58.473Z,20.59
2016-09-30T10:11:58.500Z,20.53
2016-09-30T10:12:58.549Z,20.52
2016-09-30T10:13:57.929Z,20.53
2016-09-30T10:14:58.570Z,20.39
2016-09-30T10:15:58.589Z,20.39
2016-09-30T10:16:58.784Z,20.46
2016-09-30T10:17:58.794Z,20.5
2016-09-30T10:18:58.451Z,20.46
2016-09-30T10:19:58.631Z,20.55
2016-09-30T10:20:58.828Z,20.46
2016-09-30T10:21:58.440Z,20.49
2016-09-30T10:22:58.771Z,20.52
2016-09-30T10:23:58.812Z,20.63
2016-09-30T10:24:58.842Z,20.78
2016-09-30T10:25:58.909Z,20.9
2016-09-30T10:26:58.273Z,21.01
2016-09-30T10:27:58.903Z,21.04
2016-09-30T10:28:58.619Z,21.3
2016-09-30T10:29:59.003Z,21.3
2016-09-30T10:30:58.676Z,21.29
2016-09-30T10:31:59.046Z,21.32
2016-09-30T10:32:59.039Z,21.4
2016-09-30T10:33:58.751Z,21.45
2016-09-30T10:34:59.103Z,21.45
2016-09-30T10:35:58.793Z,21.5
2016-09-30T10:36:59.143Z,21.5
2016-09-30T10:37:59.178Z,21.48
2016-09-30T10:38:59.188Z,21.41
2016-09-30T10:39:58.929Z,21.28
2016-09-30T10:40:58.932Z,21.07
2016-09-30T10:41:59.304Z,20.92
2016-09-30T10:42:59.003Z,20.89
2016-09-30T10:43:59.012Z,20.82
2016-09-30T10:44:59.369Z,20.75
2016-09-30T10:45:59.634Z,20.74
2016-09-30T10:46:59.654Z,20.7
2016-09-30T10:47:59.623Z,20.78
2016-09-30T10:48:59.341Z,20.78
2016-09-30T10:49:59.333Z,20.85
2016-09-30T10:50:59.376Z,20.98
2016-09-30T10:51:59.643Z,21.13
2016-09-30T10:52:59.651Z,21.45
2016-09-30T10:53:59.649Z,21.62
2016-09-30T10:54:59.661Z,21.69
2016-09-30T10:55:59.465Z,21.74
2016-09-30T10:56:59.664Z,21.68
2016-09-30T10:57:59.390Z,21.59
2016-09-30T10:58:59.714Z,21.29
2016-09-30T10:59:59.727Z,21.07
2016-09-30T11:00:59.783Z,20.88
2016-09-30T11:01:59.474Z,20.59
2016-09-30T11:02:59.889Z,20.39
2016-09-30T11:03:59.847Z,20.42
2016-09-30T11:04:59.559Z,20.33
2016-09-30T11:05:59.331Z,20.42
2016-09-30T11:06:59.932Z,20.5
2016-09-30T11:07:59.959Z,20.53
2016-09-30T11:08:59.996Z,20.58
2016-09-30T11:09:59.690Z,20.67
2016-09-30T11:11:00.092Z,20.88
2016-09-30T11:12:00.064Z,20.9
2016-09-30T11:13:00.080Z,20.92
2016-09-30T11:14:00.129Z,20.88
2016-09-30T11:15:00.120Z,20.93
2016-09-30T11:16:00.202Z,20.86
2016-09-30T11:17:00.193Z,20.92
2016-09-30T11:18:00.204Z,21.1
2016-09-30T11:19:00.232Z,21.35
2016-09-30T11:19:59.633Z,21.54
2016-09-30T11:21:00.284Z,21.83
2016-09-30T11:22:00.044Z,22.03
2016-09-30T11:23:00.452Z,22.06
2016-09-30T11:24:00.058Z,22.1
2016-09-30T11:25:00.425Z,22.07
2016-09-30T11:26:00.153Z,22.07
2016-09-30T11:27:00.514Z,21.7
2016-09-30T11:27:59.947Z,21.53
2016-09-30T11:28:59.884Z,21.51
2016-09-30T11:30:00.201Z,21.33
2016-09-30T11:31:00.549Z,21.38
2016-09-30T11:32:00.577Z,21.35
2016-09-30T11:33:00.298Z,21.41
2016-09-30T11:34:00.627Z,21.54
2016-09-30T11:35:00.653Z,21.65
2016-09-30T11:36:00.772Z,21.62
2016-09-30T11:37:00.411Z,21.77
2016-09-30T11:38:00.730Z,21.8
2016-09-30T11:39:00.791Z,21.85
2016-09-30T11:40:00.782Z,21.85
2016-09-30T11:41:00.863Z,22.04
2016-09-30T11:42:00.853Z,22.07
2016-09-30T11:43:00.851Z,22.25
2016-09-30T11:44:00.582Z,22.43
2016-09-30T11:45:00.921Z,22.56
2016-09-30T11:46:00.987Z,22.49
2016-09-30T11:47:00.972Z,22.77
2016-09-30T11:48:00.993Z,22.89
2016-09-30T11:49:00.814Z,22.83
2016-09-30T11:50:00.754Z,22.84
2016-09-30T11:51:01.148Z,22.91
2016-09-30T11:52:01.120Z,22.84
2016-09-30T11:53:01.149Z,22.76
2016-09-30T11:54:01.211Z,23.07
2016-09-30T11:55:00.882Z,23.14
2016-09-30T11:56:00.957Z,23.36
2016-09-30T11:57:01.240Z,23.34
2016-09-30T11:58:01.262Z,23.37
2016-09-30T11:59:01.003Z,23.28
2016-09-30T12:00:01.325Z,22.96
2016-09-30T12:01:01.362Z,22.73
2016-09-30T12:02:01.074Z,22.53
2016-09-30T12:03:01.392Z,22.21
2016-09-30T12:04:01.117Z,21.99
2016-09-30T12:05:01.475Z,21.69
2016-09-30T12:06:01.183Z,21.48
2016-09-30T12:07:01.573Z,21.43
2016-09-30T12:08:01.223Z,21.15
2016-09-30T12:09:01.561Z,20.89
2016-09-30T12:10:01.599Z,20.78
2016-09-30T12:11:01.628Z,20.44
2016-09-30T12:12:01.675Z,20.12
2016-09-30T12:13:01.670Z,19.62
2016-09-30T12:14:01.703Z,18.66
2016-09-30T12:15:01.434Z,18.21
2016-09-30T12:16:01.756Z,17.78
2016-09-30T12:17:01.779Z,17.59
2016-09-30T12:18:01.799Z,17.32
2016-09-30T12:19:01.824Z,17.1
2016-09-30T12:20:01.554Z,16.98
2016-09-30T12:21:01.883Z,16.8
2016-09-30T12:22:01.903Z,16.65
2016-09-30T12:23:01.922Z,16.58
2016-09-30T12:24:01.644Z,16.61
2016-09-30T12:25:01.975Z,16.5
2016-09-30T12:26:01.734Z,16.55
2016-09-30T12:27:02.042Z,16.59
2016-09-30T12:28:01.842Z,16.43
2016-09-30T12:29:02.118Z,16.47
2016-09-30T12:30:02.096Z,16.44
2016-09-30T12:31:02.181Z,16.43
2016-09-30T12:32:01.843Z,16.59
2016-09-30T12:33:02.173Z,16.58
2016-09-30T12:34:02.190Z,16.73
2016-09-30T12:35:02.224Z,16.65
2016-09-30T12:36:02.295Z,16.8
2016-09-30T12:37:01.973Z,16.87
2016-09-30T12:38:02.432Z,16.89
2016-09-30T12:39:02.318Z,16.91
2016-09-30T12:40:02.402Z,16.92
2016-09-30T12:41:02.044Z,17.02
2016-09-30T12:42:02.399Z,17.02
2016-09-30T12:43:02.092Z,17.02
2016-09-30T12:44:02.483Z,16.86
2016-09-30T12:45:02.175Z,16.82
2016-09-30T12:46:02.482Z,16.72
2016-09-30T12:47:02.211Z,16.41
2016-09-30T12:48:02.514Z,16.28
2016-09-30T12:49:02.546Z,16.17
2016-09-30T12:50:02.593Z,16.16
2016-09-30T12:51:02.301Z,16.17
2016-09-30T12:52:02.673Z,16.21
2016-09-30T12:53:02.048Z,16.13
2016-09-30T12:54:02.381Z,16.22
2016-09-30T12:55:02.688Z,16.13
2016-09-30T12:56:02.401Z,16.1
2016-09-30T12:57:02.726Z,16.06